createdAt,value
2019-04-25T00:00:34.371Z,97049.06
2019-04-25T00:03:03.278Z,97056.83
2019-04-25T00:05:32.331Z,97060.73
2019-04-25T00:08:01.531Z,97060.38
2019-04-25T00:10:31.790Z,97051.11
2019-04-25T00:13:01.677Z,97052.18
2019-04-25T00:15:31.857Z,97057.04
2019-04-25T00:18:02.248Z,97054.32
2019-04-25T00:20:32.215Z,97055.42
2019-04-25T00:23:11.758Z,97058.17
2019-04-25T00:25:45.220Z,97051.81
2019-04-25T00:28:11.978Z,97057.31
2019-04-25T00:30:42.626Z,97051.20
2019-04-25T00:33:11.612Z,97048.81
2019-04-25T00:35:42.538Z,97045.33
2019-04-25T00:38:12.109Z,97053.27
2019-04-25T00:40:42.719Z,97050.70
2019-04-25T00:43:11.420Z,97049.34
2019-04-25T00:45:41.498Z,97053.75
2019-04-25T00:48:10.067Z,97058.15
2019-04-25T00:50:38.472Z,97062.79
2019-04-25T00:53:06.844Z,97060.85
2019-04-25T00:55:35.234Z,97047.16
2019-04-25T00:58:07.826Z,97058.95
2019-04-25T01:00:37.819Z,97068.17
2019-04-25T01:03:07.880Z,97065.67
2019-04-25T01:05:36.199Z,97069.11
2019-04-25T01:08:04.568Z,97061.02
2019-04-25T01:10:33.044Z,97061.27
2019-04-25T01:13:03.059Z,97061.46
2019-04-25T01:15:31.598Z,97058.52
2019-04-25T01:18:01.182Z,97068.59
2019-04-25T01:20:29.741Z,97072.87
2019-04-25T01:23:00.803Z,97074.66
2019-04-25T01:25:38.620Z,97075.15
2019-04-25T01:27:58.713Z,97072.31
2019-04-25T01:30:27.991Z,97073.16
2019-04-25T01:32:56.749Z,97065.70
2019-04-25T01:35:26.776Z,97068.14
2019-04-25T01:38:13.714Z,97079.98
2019-04-25T01:41:03.396Z,97080.98
2019-04-25T01:43:52.769Z,97084.02
2019-04-25T01:46:19.838Z,97084.80
2019-04-25T01:48:48.610Z,97092.01
2019-04-25T01:51:17.266Z,97085.27
2019-04-25T01:53:45.627Z,97085.78
2019-04-25T01:56:14.472Z,97092.88
2019-04-25T01:58:43.800Z,97088.02
2019-04-25T02:01:14.346Z,97094.81
2019-04-25T02:03:44.230Z,97101.98
2019-04-25T02:06:13.675Z,97098.30
2019-04-25T02:08:44.172Z,97097.75
2019-04-25T02:11:16.660Z,97112.05
2019-04-25T02:13:45.227Z,97109.99
2019-04-25T02:16:14.202Z,97105.50
2019-04-25T02:18:43.571Z,97100.13
2019-04-25T02:21:13.625Z,97110.41
2019-04-25T02:23:44.045Z,97107.48
2019-04-25T02:26:16.710Z,97111.55
2019-04-25T02:28:43.705Z,97117.70
2019-04-25T02:31:18.011Z,97119.84
2019-04-25T02:33:44.227Z,97118.66
2019-04-25T02:36:15.057Z,97117.02
2019-04-25T02:38:44.242Z,97123.33
2019-04-25T02:41:14.761Z,97115.23
2019-04-25T02:43:45.030Z,97115.53
2019-04-25T02:46:26.701Z,97115.28
2019-04-25T02:49:06.698Z,97113.80
2019-04-25T02:51:35.022Z,97111.25
2019-04-25T02:54:06.737Z,97107.16
2019-04-25T02:56:38.236Z,97110.34
2019-04-25T02:59:06.989Z,97113.02
2019-04-25T03:01:34.312Z,97113.72
2019-04-25T03:04:04.931Z,97107.69
2019-04-25T03:06:35.029Z,97113.05
2019-04-25T03:09:05.671Z,97114.80
2019-04-25T03:11:34.716Z,97121.97
2019-04-25T03:14:06.348Z,97124.01
2019-04-25T03:16:34.761Z,97124.98
2019-04-25T03:19:16.978Z,97123.21
2019-04-25T03:21:47.863Z,97119.02
2019-04-25T03:24:16.894Z,97115.70
2019-04-25T03:26:45.741Z,97119.59
2019-04-25T03:29:14.225Z,97122.45
2019-04-25T03:31:45.000Z,97126.01
2019-04-25T03:34:17.234Z,97121.69
2019-04-25T03:36:43.841Z,97130.53
2019-04-25T03:39:14.448Z,97126.87
2019-04-25T03:41:43.864Z,97132.92
2019-04-25T03:44:13.945Z,97128.22
2019-04-25T03:46:43.798Z,97126.33
2019-04-25T03:49:13.559Z,97136.98
2019-04-25T03:51:43.869Z,97127.42
2019-04-25T03:54:14.306Z,97120.45
2019-04-25T03:56:53.233Z,97113.14
2019-04-25T03:59:14.664Z,97101.87
2019-04-25T04:01:45.404Z,97105.56
2019-04-25T04:04:16.312Z,97094.59
2019-04-25T04:06:44.159Z,97093.32
2019-04-25T04:09:14.255Z,97082.34
2019-04-25T04:11:43.531Z,97093.06
2019-04-25T04:14:12.973Z,97082.97
2019-04-25T04:16:44.360Z,97075.73
2019-04-25T04:19:14.734Z,97060.13
2019-04-25T04:21:53.123Z,97063.72
2019-04-25T04:24:26.142Z,97071.09
2019-04-25T04:27:11.105Z,97076.02
2019-04-25T04:29:40.499Z,97089.67
2019-04-25T04:32:08.856Z,97090.88
2019-04-25T04:34:37.314Z,97100.70
2019-04-25T04:37:05.718Z,97109.34
2019-04-25T04:39:34.397Z,97105.56
2019-04-25T04:42:03.831Z,97106.23
2019-04-25T04:44:34.195Z,97105.41
2019-04-25T04:47:03.978Z,97100.13
2019-04-25T04:49:34.047Z,97107.22
2019-04-25T04:52:04.523Z,97101.27
2019-04-25T04:54:34.421Z,97102.13
2019-04-25T04:57:16.686Z,97094.45
2019-04-25T04:59:33.826Z,97099.16
2019-04-25T05:02:06.836Z,97094.52
2019-04-25T05:04:37.645Z,97093.36
2019-04-25T05:07:15.033Z,97082.00
2019-04-25T05:09:43.605Z,97085.84
2019-04-25T05:12:13.055Z,97087.98
2019-04-25T05:14:41.707Z,97086.46
2019-04-25T05:17:10.242Z,97083.53
2019-04-25T05:19:38.696Z,97083.49
2019-04-25T05:22:07.237Z,97084.98
2019-04-25T05:24:35.709Z,97088.41
2019-04-25T05:27:04.254Z,97075.39
2019-04-25T05:29:33.975Z,97083.72
2019-04-25T05:32:04.139Z,97082.55
2019-04-25T05:34:34.226Z,97079.25
2019-04-25T05:37:03.859Z,97076.75
2019-04-25T05:39:33.436Z,97082.78
2019-04-25T05:42:07.740Z,97075.67
2019-04-25T05:44:36.199Z,97075.36
2019-04-25T05:47:04.919Z,97083.51
2019-04-25T05:49:34.291Z,97060.84
2019-04-25T05:52:04.010Z,97074.98
2019-04-25T05:54:33.994Z,97075.73
2019-04-25T05:57:03.730Z,97073.12
2019-04-25T05:59:33.532Z,97079.43
2019-04-25T06:02:03.834Z,97075.98
2019-04-25T06:04:33.524Z,97082.41
2019-04-25T06:07:02.036Z,97079.22
2019-04-25T06:09:38.273Z,97084.55
2019-04-25T06:12:14.439Z,97071.59
2019-04-25T06:14:43.394Z,97074.50
2019-04-25T06:17:13.751Z,97074.13
2019-04-25T06:19:43.690Z,97075.05
2019-04-25T06:22:19.952Z,97078.42
2019-04-25T06:24:50.949Z,97075.37
2019-04-25T06:27:20.905Z,97077.17
2019-04-25T06:29:58.167Z,97072.15
2019-04-25T06:32:21.523Z,97074.19
2019-04-25T06:34:50.058Z,97077.67
2019-04-25T06:37:18.428Z,97071.89
2019-04-25T06:39:46.834Z,97073.75
2019-04-25T06:42:15.204Z,97061.78
2019-04-25T06:44:54.250Z,97061.59
2019-04-25T06:47:30.080Z,97068.23
2019-04-25T06:49:58.416Z,97064.53
2019-04-25T06:52:30.023Z,97055.09
2019-04-25T06:54:57.099Z,97056.34
2019-04-25T06:57:26.975Z,97057.17
2019-04-25T06:59:55.464Z,97048.81
2019-04-25T07:02:25.388Z,97046.44
2019-04-25T07:04:54.093Z,97050.18
2019-04-25T07:07:24.543Z,97049.20
2019-04-25T07:09:53.511Z,97040.83
2019-04-25T07:12:26.267Z,97042.70
2019-04-25T07:14:53.933Z,97044.34
2019-04-25T07:17:24.094Z,97042.62
2019-04-25T07:19:54.141Z,97036.91
2019-04-25T07:22:23.968Z,97037.92
2019-04-25T07:24:53.753Z,97039.63
2019-04-25T07:27:26.650Z,97035.05
2019-04-25T07:30:26.700Z,97026.80
2019-04-25T07:32:48.904Z,97020.76
2019-04-25T07:35:17.451Z,97019.13
2019-04-25T07:37:45.840Z,97010.88
2019-04-25T07:40:14.856Z,97003.48
2019-04-25T07:42:43.914Z,97008.33
2019-04-25T07:45:14.110Z,97001.75
2019-04-25T07:47:44.142Z,97004.48
2019-04-25T07:50:15.090Z,96998.72
2019-04-25T07:52:44.324Z,96995.89
2019-04-25T07:55:13.775Z,96996.62
2019-04-25T07:57:44.178Z,96993.54
2019-04-25T08:00:14.313Z,96993.67
2019-04-25T08:02:43.575Z,96990.95
2019-04-25T08:05:14.475Z,96992.73
2019-04-25T08:07:43.672Z,96978.92
2019-04-25T08:10:14.009Z,96987.30
2019-04-25T08:12:44.400Z,96982.86
2019-04-25T08:15:31.796Z,96979.76
2019-04-25T08:18:04.540Z,96980.91
2019-04-25T08:20:34.739Z,96984.81
2019-04-25T08:23:04.376Z,96979.55
2019-04-25T08:25:33.503Z,96975.63
2019-04-25T08:28:03.852Z,96974.60
2019-04-25T08:30:34.177Z,96971.02
2019-04-25T08:33:03.976Z,96968.95
2019-04-25T08:35:34.202Z,96967.34
2019-04-25T08:38:03.707Z,96964.52
2019-04-25T08:40:35.815Z,96962.45
2019-04-25T08:43:03.518Z,96965.25
2019-04-25T08:45:33.555Z,96956.66
2019-04-25T08:48:03.640Z,96955.90
2019-04-25T08:50:41.058Z,96959.23
2019-04-25T08:53:09.821Z,96954.71
2019-04-25T08:55:44.447Z,96962.96
2019-04-25T08:58:14.324Z,96960.99
2019-04-25T09:00:58.062Z,96960.80
2019-04-25T09:03:18.872Z,96958.06
2019-04-25T09:05:49.084Z,96966.64
2019-04-25T09:08:17.453Z,96954.08
2019-04-25T09:10:45.843Z,96953.08
2019-04-25T09:13:14.161Z,96960.64
2019-04-25T09:15:45.449Z,96950.87
2019-04-25T09:18:14.103Z,96944.25
2019-04-25T09:20:43.871Z,96941.06
2019-04-25T09:23:13.628Z,96939.89
2019-04-25T09:25:44.454Z,96940.74
2019-04-25T09:28:13.789Z,96929.31
2019-04-25T09:30:44.470Z,96925.86
2019-04-25T09:33:13.362Z,96922.61
2019-04-25T09:35:41.994Z,96925.15
2019-04-25T09:38:10.524Z,96936.30
2019-04-25T09:40:39.525Z,96921.20
2019-04-25T09:43:07.846Z,96923.05
2019-04-25T09:45:40.397Z,96919.80
2019-04-25T09:48:23.172Z,96919.61
2019-04-25T09:51:03.569Z,96906.56
2019-04-25T09:53:34.846Z,96906.65
2019-04-25T09:56:17.554Z,96907.34
2019-04-25T09:58:53.974Z,96900.22
2019-04-25T10:01:24.014Z,96896.20
2019-04-25T10:03:54.271Z,96891.73
2019-04-25T10:06:23.390Z,96892.45
2019-04-25T10:08:51.905Z,96886.98
2019-04-25T10:11:23.622Z,96878.28
2019-04-25T10:14:06.879Z,96882.81
2019-04-25T10:16:35.395Z,96885.59
2019-04-25T10:19:03.935Z,96882.38
2019-04-25T10:21:32.354Z,96880.84
2019-04-25T10:24:01.063Z,96882.25
2019-04-25T10:26:29.595Z,96877.50
2019-04-25T10:28:57.958Z,96865.89
2019-04-25T10:31:26.603Z,96865.91
2019-04-25T10:33:55.243Z,96869.98
2019-04-25T10:36:24.699Z,96872.85
2019-04-25T10:39:04.076Z,96871.95
2019-04-25T10:41:24.483Z,96866.92
2019-04-25T10:43:54.660Z,96867.15
2019-04-25T10:46:24.416Z,96860.62
2019-04-25T10:48:55.947Z,96859.81
2019-04-25T10:51:23.966Z,96855.75
2019-04-25T10:53:53.872Z,96847.88
2019-04-25T10:56:24.238Z,96841.34
2019-04-25T10:58:54.783Z,96835.30
2019-04-25T11:01:24.410Z,96840.44
2019-04-25T11:03:55.707Z,96843.67
2019-04-25T11:06:25.766Z,96832.55
2019-04-25T11:08:56.446Z,96831.48
2019-04-25T11:11:24.502Z,96818.88
2019-04-25T11:13:55.651Z,96822.60
2019-04-25T11:16:24.302Z,96812.87
2019-04-25T11:18:54.770Z,96808.23
2019-04-25T11:21:24.250Z,96808.96
2019-04-25T11:23:55.055Z,96806.16
2019-04-25T11:26:23.344Z,96806.52
2019-04-25T11:28:51.800Z,96815.13
2019-04-25T11:31:23.382Z,96812.31
2019-04-25T11:33:52.001Z,96817.83
2019-04-25T11:36:20.393Z,96809.88
2019-04-25T11:39:06.762Z,96817.02
2019-04-25T11:41:35.586Z,96817.73
2019-04-25T11:44:04.275Z,96803.11
2019-04-25T11:46:33.316Z,96812.04
2019-04-25T11:49:01.819Z,96812.16
2019-04-25T11:51:30.113Z,96803.00
2019-04-25T11:53:58.525Z,96804.89
2019-04-25T11:56:26.920Z,96809.29
2019-04-25T11:58:55.541Z,96797.66
2019-04-25T12:01:24.444Z,96807.86
2019-04-25T12:03:52.773Z,96803.16
2019-04-25T12:06:21.158Z,96791.27
2019-04-25T12:08:49.732Z,96783.87
2019-04-25T12:11:18.019Z,96790.27
2019-04-25T12:13:47.820Z,96793.21
2019-04-25T12:16:17.277Z,96784.86
2019-04-25T12:18:48.062Z,96779.73
2019-04-25T12:21:15.999Z,96770.98
2019-04-25T12:23:46.413Z,96770.37
2019-04-25T12:26:14.583Z,96776.41
2019-04-25T12:28:42.970Z,96761.89
2019-04-25T12:31:13.266Z,96760.84
2019-04-25T12:33:41.616Z,96759.98
2019-04-25T12:36:10.010Z,96753.33
2019-04-25T12:38:38.554Z,96763.31
2019-04-25T12:41:06.976Z,96762.35
2019-04-25T12:43:37.156Z,96760.37
2019-04-25T12:46:07.224Z,96754.59
2019-04-25T12:48:35.690Z,96758.53
2019-04-25T12:51:04.436Z,96753.69
2019-04-25T12:53:33.450Z,96751.20
2019-04-25T12:56:04.383Z,96750.28
2019-04-25T12:58:33.454Z,96747.60
2019-04-25T13:01:01.979Z,96744.69
2019-04-25T13:03:30.514Z,96749.05
2019-04-25T13:05:59.048Z,96754.98
2019-04-25T13:08:27.817Z,96748.59
2019-04-25T13:11:07.557Z,96744.38
2019-04-25T13:13:26.182Z,96747.14
2019-04-25T13:15:54.703Z,96743.84
2019-04-25T13:18:23.111Z,96746.25
2019-04-25T13:20:51.541Z,96742.19
2019-04-25T13:23:20.282Z,96736.53
2019-04-25T13:25:49.252Z,96740.58
2019-04-25T13:28:19.263Z,96736.81
2019-04-25T13:31:01.510Z,96729.98
2019-04-25T13:33:36.064Z,96724.65
2019-04-25T13:36:06.478Z,96713.59
2019-04-25T13:38:34.867Z,96729.78
2019-04-25T13:41:04.083Z,96722.55
2019-04-25T13:43:32.735Z,96727.48
2019-04-25T13:46:01.125Z,96720.17
2019-04-25T13:48:29.512Z,96722.00
2019-04-25T13:50:58.000Z,96722.97
2019-04-25T13:53:27.284Z,96710.73
2019-04-25T13:55:55.841Z,96709.56
2019-04-25T13:58:25.505Z,96710.41
2019-04-25T14:00:53.869Z,96703.56
2019-04-25T14:03:22.968Z,96706.47
2019-04-25T14:05:53.956Z,96698.91
2019-04-25T14:08:24.415Z,96708.53
2019-04-25T14:10:54.205Z,96702.48
2019-04-25T14:13:25.132Z,96697.34
2019-04-25T14:15:54.721Z,96695.91
2019-04-25T14:18:31.495Z,96685.37
2019-04-25T14:21:10.113Z,96689.22
2019-04-25T14:23:38.734Z,96684.09
2019-04-25T14:26:07.249Z,96685.77
2019-04-25T14:28:35.920Z,96672.13
2019-04-25T14:31:04.724Z,96667.82
2019-04-25T14:33:34.875Z,96660.38
2019-04-25T14:36:03.247Z,96665.03
2019-04-25T14:38:31.661Z,96666.00
2019-04-25T14:41:00.295Z,96657.80
2019-04-25T14:43:29.061Z,96662.98
2019-04-25T14:45:58.168Z,96662.80
2019-04-25T14:48:27.222Z,96665.05
2019-04-25T14:50:55.649Z,96663.95
2019-04-25T14:53:24.406Z,96656.19
2019-04-25T14:56:09.614Z,96656.80
2019-04-25T14:58:39.689Z,96653.45
2019-04-25T15:01:08.306Z,96651.30
2019-04-25T15:03:36.875Z,96653.96
2019-04-25T15:06:06.109Z,96653.19
2019-04-25T15:08:34.605Z,96646.64
2019-04-25T15:11:03.081Z,96644.12
2019-04-25T15:13:31.867Z,96647.76
2019-04-25T15:16:00.493Z,96648.44
2019-04-25T15:18:28.874Z,96651.31
2019-04-25T15:20:57.250Z,96650.98
2019-04-25T15:23:25.685Z,96650.08
2019-04-25T15:25:54.065Z,96644.34
2019-04-25T15:28:24.379Z,96644.12
2019-04-25T15:30:53.315Z,96645.68
2019-04-25T15:33:21.997Z,96646.03
2019-04-25T15:35:55.007Z,96649.88
2019-04-25T15:38:25.019Z,96648.63
2019-04-25T15:40:55.145Z,96650.09
2019-04-25T15:43:31.422Z,96646.55
2019-04-25T15:46:04.143Z,96647.23
2019-04-25T15:48:33.230Z,96646.03
2019-04-25T15:51:01.841Z,96641.01
2019-04-25T15:53:30.642Z,96641.72
2019-04-25T15:55:59.546Z,96638.97
2019-04-25T15:58:28.080Z,96639.28
2019-04-25T16:00:56.839Z,96635.80
2019-04-25T16:03:25.152Z,96630.44
2019-04-25T16:05:53.776Z,96627.95
2019-04-25T16:08:22.268Z,96628.38
2019-04-25T16:10:50.685Z,96631.41
2019-04-25T16:13:19.226Z,96634.47
2019-04-25T16:15:47.680Z,96613.09
2019-04-25T16:18:16.316Z,96632.74
2019-04-25T16:20:44.772Z,96624.06
2019-04-25T16:23:13.504Z,96638.20
2019-04-25T16:25:41.876Z,96640.63
2019-04-25T16:28:10.572Z,96648.52
2019-04-25T16:30:40.818Z,96648.70
2019-04-25T16:33:09.953Z,96644.89
2019-04-25T16:35:38.694Z,96643.36
2019-04-25T16:38:07.294Z,96649.80
2019-04-25T16:40:36.233Z,96645.15
2019-04-25T16:43:07.011Z,96650.84
2019-04-25T16:45:37.760Z,96649.92
2019-04-25T16:48:06.454Z,96644.59
2019-04-25T16:50:35.108Z,96650.52
2019-04-25T16:53:03.485Z,96650.19
2019-04-25T16:55:32.512Z,96654.92
2019-04-25T16:58:01.056Z,96653.14
2019-04-25T17:00:40.836Z,96659.34
2019-04-25T17:03:09.490Z,96661.01
2019-04-25T17:05:39.343Z,96666.89
2019-04-25T17:08:08.161Z,96656.30
2019-04-25T17:10:36.918Z,96658.73
2019-04-25T17:13:06.734Z,96654.30
2019-04-25T17:15:52.100Z,96658.09
2019-04-25T17:18:22.080Z,96654.78
2019-04-25T17:21:01.364Z,96655.22
2019-04-25T17:23:30.104Z,96666.83
2019-04-25T17:25:59.328Z,96662.41
2019-04-25T17:28:30.335Z,96667.42
2019-04-25T17:31:01.588Z,96668.63
2019-04-25T17:33:32.317Z,96671.63
2019-04-25T17:36:02.626Z,96670.16
2019-04-25T17:38:36.158Z,96670.58
2019-04-25T17:41:04.627Z,96676.11
2019-04-25T17:43:34.238Z,96677.58
2019-04-25T17:46:04.728Z,96683.08
2019-04-25T17:48:34.076Z,96686.02
2019-04-25T17:51:02.671Z,96692.89
2019-04-25T17:53:32.936Z,96688.19
2019-04-25T17:56:01.446Z,96694.66
2019-04-25T17:58:29.806Z,96696.62
2019-04-25T18:00:58.638Z,96701.31
2019-04-25T18:03:28.919Z,96697.58
2019-04-25T18:05:57.568Z,96702.09
2019-04-25T18:08:26.278Z,96699.97
2019-04-25T18:10:54.639Z,96705.66
2019-04-25T18:13:23.184Z,96704.13
2019-04-25T18:15:59.211Z,96707.87
2019-04-25T18:18:45.670Z,96712.98
2019-04-25T18:21:14.166Z,96711.08
2019-04-25T18:24:00.332Z,96715.25
2019-04-25T18:26:33.231Z,96717.59
2019-04-25T18:29:14.595Z,96722.10
2019-04-25T18:31:43.856Z,96730.17
2019-04-25T18:34:13.966Z,96733.90
2019-04-25T18:36:55.908Z,96734.69
2019-04-25T18:39:25.905Z,96739.58
2019-04-25T18:41:55.684Z,96745.45
2019-04-25T18:44:24.162Z,96750.58
2019-04-25T18:46:52.665Z,96749.80
2019-04-25T18:49:21.053Z,96758.42
2019-04-25T18:51:57.524Z,96764.11
2019-04-25T18:54:25.127Z,96780.12
2019-04-25T18:57:01.066Z,96791.23
2019-04-25T18:59:48.219Z,96797.85
2019-04-25T19:02:33.901Z,96809.72
2019-04-25T19:05:03.965Z,96819.30
2019-04-25T19:07:32.437Z,96824.77
2019-04-25T19:10:00.914Z,96830.83
2019-04-25T19:12:29.302Z,96840.08
2019-04-25T19:14:57.976Z,96849.30
2019-04-25T19:17:26.400Z,96864.96
2019-04-25T19:19:55.032Z,96869.98
2019-04-25T19:22:23.667Z,96878.89
2019-04-25T19:24:52.250Z,96882.47
2019-04-25T19:27:24.047Z,96893.81
2019-04-25T19:29:52.533Z,96902.69
2019-04-25T19:32:21.145Z,96910.13
2019-04-25T19:34:49.525Z,96917.52
2019-04-25T19:37:17.966Z,96918.45
2019-04-25T19:40:04.317Z,96916.20
2019-04-25T19:42:34.402Z,96937.67
2019-04-25T19:45:03.014Z,96952.17
2019-04-25T19:47:31.420Z,96949.25
2019-04-25T19:49:59.976Z,96955.34
2019-04-25T19:52:29.695Z,96971.53
2019-04-25T19:54:58.107Z,96976.94
2019-04-25T19:57:26.888Z,96980.45
2019-04-25T19:59:56.738Z,96987.95
2019-04-25T20:02:29.305Z,96990.66
2019-04-25T20:04:59.322Z,96998.52
2019-04-25T20:07:37.953Z,97005.61
2019-04-25T20:10:09.148Z,97009.27
2019-04-25T20:12:45.396Z,97027.86
2019-04-25T20:15:15.430Z,97038.70
2019-04-25T20:17:44.838Z,97035.84
2019-04-25T20:20:14.150Z,97040.78
2019-04-25T20:22:42.526Z,97044.67
2019-04-25T20:25:11.233Z,97050.33
2019-04-25T20:27:39.606Z,97061.41
2019-04-25T20:30:08.451Z,97073.14
2019-04-25T20:32:36.829Z,97082.08
2019-04-25T20:35:05.450Z,97097.36
2019-04-25T20:37:33.735Z,97092.56
2019-04-25T20:40:03.733Z,97100.66
2019-04-25T20:42:32.009Z,97105.73
2019-04-25T20:45:00.362Z,97109.23
2019-04-25T20:47:28.751Z,97103.14
2019-04-25T20:49:57.793Z,97106.88
2019-04-25T20:52:27.890Z,97117.59
2019-04-25T20:54:56.975Z,97121.42
2019-04-25T20:57:25.390Z,97133.73
2019-04-25T20:59:53.923Z,97138.16
2019-04-25T21:02:22.179Z,97145.67
2019-04-25T21:04:50.606Z,97144.50
2019-04-25T21:07:19.034Z,97134.50
2019-04-25T21:09:47.445Z,97130.63
2019-04-25T21:12:15.889Z,97129.09
2019-04-25T21:14:45.939Z,97148.30
2019-04-25T21:17:18.831Z,97150.06
2019-04-25T21:19:54.796Z,97148.95
2019-04-25T21:22:23.073Z,97151.87
2019-04-25T21:24:51.870Z,97154.45
2019-04-25T21:27:20.536Z,97162.27
2019-04-25T21:29:49.020Z,97159.00
2019-04-25T21:32:19.217Z,97159.98
2019-04-25T21:34:47.546Z,97164.70
2019-04-25T21:37:16.386Z,97171.22
2019-04-25T21:39:47.754Z,97187.47
2019-04-25T21:42:21.344Z,97200.94
2019-04-25T21:44:50.141Z,97193.04
2019-04-25T21:47:18.597Z,97185.02
2019-04-25T21:49:47.350Z,97175.67
2019-04-25T21:52:15.760Z,97189.44
2019-04-25T21:54:44.504Z,97202.95
2019-04-25T21:57:13.131Z,97205.47
2019-04-25T21:59:41.717Z,97181.88
2019-04-25T22:02:10.097Z,97183.25
2019-04-25T22:04:41.241Z,97185.75
2019-04-25T22:07:08.865Z,97171.20
2019-04-25T22:09:37.525Z,97168.30
2019-04-25T22:12:08.171Z,97165.07
2019-04-25T22:14:36.547Z,97161.05
2019-04-25T22:17:06.000Z,97168.94
2019-04-25T22:19:35.013Z,97173.05
2019-04-25T22:22:04.696Z,97172.63
2019-04-25T22:24:33.173Z,97176.55
2019-04-25T22:27:03.360Z,97170.95
2019-04-25T22:29:33.330Z,97187.60
2019-04-25T22:32:03.474Z,97193.67
2019-04-25T22:34:33.855Z,97194.38
2019-04-25T22:37:02.334Z,97198.30
2019-04-25T22:39:30.939Z,97195.41
2019-04-25T22:41:59.756Z,97189.53
2019-04-25T22:44:29.372Z,97183.12
2019-04-25T22:46:58.074Z,97178.63
2019-04-25T22:49:26.443Z,97175.53
2019-04-25T22:51:54.800Z,97179.36
2019-04-25T22:54:23.875Z,97184.52
2019-04-25T22:56:52.276Z,97190.00
2019-04-25T22:59:20.944Z,97189.94
2019-04-25T23:01:51.037Z,97195.00
2019-04-25T23:04:36.291Z,97193.56
2019-04-25T23:07:05.929Z,97199.95
2019-04-25T23:09:36.347Z,97204.88
2019-04-25T23:12:06.659Z,97201.58
2019-04-25T23:14:35.462Z,97184.61
2019-04-25T23:17:04.990Z,97164.90
2019-04-25T23:19:33.337Z,97160.34
2019-04-25T23:22:01.708Z,97169.28
2019-04-25T23:24:31.675Z,97163.49
2019-04-25T23:27:14.377Z,97167.70
2019-04-25T23:29:42.794Z,97182.34
2019-04-25T23:32:12.432Z,97195.74
2019-04-25T23:34:40.837Z,97198.92
2019-04-25T23:37:09.308Z,97193.76
2019-04-25T23:39:37.985Z,97189.70
2019-04-25T23:42:07.294Z,97180.45
2019-04-25T23:44:35.903Z,97163.73
2019-04-25T23:47:04.269Z,97162.45
2019-04-25T23:49:32.597Z,97150.97
2019-04-25T23:52:01.125Z,97148.88
2019-04-25T23:54:29.521Z,97159.92
2019-04-25T23:56:58.105Z,97165.11
2019-04-25T23:59:26.582Z,97180.05
